Terminal Aerodrome Forecast
Issued by NWS

Home | Current Version | Previous Version | Text Only | Print | Product List | Glossary On
Versions: 1 2 3 4 5 6 7 8 9 10 11 12 13 14 15 16 17
000
FTUS46 KPDT 231100
TAFPSC
TAF
KPSC 231120Z 2312/2412 VRB06KT P6SM VCSH SCT070 OVC100
     FM232000 23015G25KT P6SM BKN090
     FM240300 22008KT P6SM BKN100
     FM240700 VRB06KT P6SM BKN080 BKN200=

USA.gov is the U.S. government's official web portal to all federal, state and local government web resources and services.